Time;durP1;ratioP1;P1;durP2;ratioP2;P2;SDS_P1;SDS_P2;PMS_P1;PMS_P2;Temp;Humidity;BMP_temperature;BMP_pressure;BME280_temperature;BME280_humidity;BME280_pressure;Samples;Min_cycle;Max_cycle;Signal;HPM_P1;HPM_P2
2022/03/01 00:00:13;;;;;;;8.90;7.08;;;;;;;1.41;57.29;95742.62;1530915;93;21155;-53
2022/03/01 00:02:41;;;;;;;8.68;7.37;;;;;;;1.38;57.36;95737.92;1530503;92;21058;-52
2022/03/01 00:05:08;;;;;;;8.60;7.58;;;;;;;1.48;57.37;95733.81;1536797;91;21192;-52
2022/03/01 00:07:36;;;;;;;27.07;15.30;;;;;;;1.56;57.24;95733.55;1529086;91;21594;-51
2022/03/01 00:10:05;;;;;;;11.28;8.75;;;;;;;1.57;56.85;95732.40;1529615;92;20999;-53
2022/03/01 00:12:32;;;;;;;8.45;7.55;;;;;;;1.62;56.52;95728.57;1538594;92;21523;-52
2022/03/01 00:14:59;;;;;;;8.23;6.62;;;;;;;1.63;56.50;95730.13;1533486;91;21568;-53
2022/03/01 00:17:25;;;;;;;7.28;6.45;;;;;;;1.66;56.18;95726.13;1524407;92;21178;-52
2022/03/01 00:19:52;;;;;;;7.42;6.72;;;;;;;1.56;56.08;95727.33;1531350;93;21027;-52
2022/03/01 00:22:19;;;;;;;10.60;9.60;;;;;;;1.44;56.23;95733.75;1535313;92;21173;-53
2022/03/01 00:24:45;;;;;;;10.25;9.25;;;;;;;1.44;56.49;95731.59;1532867;91;21680;-54
2022/03/01 00:27:12;;;;;;;8.03;6.60;;;;;;;1.52;56.43;95724.56;1533864;92;21133;-52
2022/03/01 00:29:39;;;;;;;7.00;6.30;;;;;;;1.47;56.27;95720.81;1537318;91;21191;-52
2022/03/01 00:32:07;;;;;;;10.60;8.23;;;;;;;1.40;56.38;95723.98;1532194;91;21534;-52
2022/03/01 00:34:34;;;;;;;9.43;8.00;;;;;;;1.36;56.73;95719.86;1526551;91;21026;-53
2022/03/01 00:37:01;;;;;;;8.95;7.30;;;;;;;1.43;56.53;95726.77;1532900;92;21046;-51
2022/03/01 00:39:29;;;;;;;7.72;6.95;;;;;;;1.40;56.63;95713.15;1533861;91;21193;-52
2022/03/01 00:41:57;;;;;;;8.95;6.78;;;;;;;1.46;56.38;95711.13;1533724;91;21245;-52
2022/03/01 00:44:24;;;;;;;12.45;9.50;;;;;;;1.50;55.91;95713.30;1528909;91;21022;-50
2022/03/01 00:46:51;;;;;;;11.73;10.13;;;;;;;1.40;55.96;95712.59;1524722;92;21050;-51
2022/03/01 00:49:17;;;;;;;9.15;7.92;;;;;;;1.39;55.96;95708.88;1529504;91;21751;-53
2022/03/01 00:51:44;;;;;;;9.68;6.70;;;;;;;1.38;55.98;95708.11;1533145;93;20996;-51
2022/03/01 00:54:11;;;;;;;20.82;15.38;;;;;;;1.35;55.93;95702.04;1528785;92;21532;-54
2022/03/01 00:56:39;;;;;;;16.25;11.40;;;;;;;1.35;55.91;95710.76;1526857;91;21035;-50
2022/03/01 00:59:05;;;;;;;10.53;8.13;;;;;;;1.26;55.81;95706.95;1522986;93;21012;-53
2022/03/01 01:01:33;;;;;;;10.20;7.35;;;;;;;1.18;55.78;95706.62;1530090;91;21040;-51
2022/03/01 01:03:59;;;;;;;10.68;7.97;;;;;;;1.07;55.91;95709.75;1529587;93;21590;-51
2022/03/01 01:06:27;;;;;;;7.65;6.15;;;;;;;0.95;56.31;95706.45;1530711;93;21181;-52
2022/03/01 01:08:54;;;;;;;8.98;5.92;;;;;;;0.85;56.46;95706.49;1529098;91;21097;-51
2022/03/01 01:11:21;;;;;;;6.87;6.28;;;;;;;0.72;56.71;95708.37;1536394;92;21551;-52
2022/03/01 01:13:49;;;;;;;9.13;6.37;;;;;;;0.65;56.88;95709.05;1551982;91;21056;-51
2022/03/01 01:16:17;;;;;;;7.80;6.22;;;;;;;0.56;57.12;95705.78;1535971;91;21210;-52
2022/03/01 01:18:44;;;;;;;8.50;7.35;;;;;;;0.51;57.48;95700.67;1529632;93;21124;-53
2022/03/01 01:21:13;;;;;;;9.60;7.97;;;;;;;0.60;57.34;95707.98;1528681;91;21488;-51
2022/03/01 01:23:41;;;;;;;7.65;6.67;;;;;;;0.65;57.24;95700.93;1529447;93;21003;-51
2022/03/01 01:26:09;;;;;;;14.87;6.30;;;;;;;0.68;57.12;95697.50;1529488;93;21577;-50
2022/03/01 01:28:36;;;;;;;6.92;6.00;;;;;;;0.69;57.00;95699.06;1529216;91;21015;-51
2022/03/01 01:31:04;;;;;;;69.45;33.55;;;;;;;0.68;57.09;95692.08;1529544;91;21072;-52
2022/03/01 01:33:31;;;;;;;23.70;12.25;;;;;;;0.70;56.97;95686.28;1532445;91;21126;-53
2022/03/01 01:35:59;;;;;;;11.22;7.70;;;;;;;0.64;57.21;95685.83;1530847;91;21085;-52
2022/03/01 01:38:26;;;;;;;12.10;8.65;;;;;;;0.56;57.19;95686.84;1526759;93;21662;-52
2022/03/01 01:40:52;;;;;;;8.55;7.72;;;;;;;0.51;57.15;95681.73;1505963;94;21069;-51
2022/03/01 01:43:19;;;;;;;8.85;7.00;;;;;;;0.45;56.94;95687.20;1492073;95;21147;-51
2022/03/01 01:45:45;;;;;;;9.70;6.42;;;;;;;0.37;57.27;95684.17;1527274;91;20995;-52
2022/03/01 01:48:13;;;;;;;9.55;6.90;;;;;;;0.42;57.43;95686.58;1525048;91;21012;-51
2022/03/01 01:50:40;;;;;;;6.30;5.80;;;;;;;0.53;57.38;95687.56;1524324;93;21144;-51
2022/03/01 01:53:07;;;;;;;7.10;6.35;;;;;;;0.64;57.10;95685.03;1521027;93;21119;-51
2022/03/01 01:55:34;;;;;;;6.60;6.00;;;;;;;0.70;56.19;95685.73;1522738;91;21117;-52
2022/03/01 01:58:00;;;;;;;6.45;5.95;;;;;;;0.63;56.57;95685.59;1534978;91;21095;-53
2022/03/01 02:00:31;;;;;;;7.28;6.17;;;;;;;0.58;56.99;95683.20;1527939;93;21121;-51
2022/03/01 02:03:00;;;;;;;6.62;6.03;;;;;;;0.54;57.07;95681.00;1527032;92;21289;-51
2022/03/01 02:05:28;;;;;;;7.15;6.45;;;;;;;0.51;57.03;95673.61;1524128;93;21015;-51
2022/03/01 02:07:55;;;;;;;8.40;7.20;;;;;;;0.48;56.89;95668.92;1525041;91;21868;-52
2022/03/01 02:10:24;;;;;;;14.05;8.80;;;;;;;0.52;56.93;95664.34;1525684;92;21107;-52
2022/03/01 02:12:51;;;;;;;9.70;7.33;;;;;;;0.51;56.92;95673.61;1526117;91;21091;-52
2022/03/01 02:15:18;;;;;;;10.15;7.08;;;;;;;0.45;56.96;95668.27;1522067;92;21133;-51
2022/03/01 02:17:45;;;;;;;8.35;6.62;;;;;;;0.35;57.16;95664.81;1530139;92;21073;-52
2022/03/01 02:20:23;;;;;;;6.67;5.58;;;;;;;0.31;57.25;95664.53;1522903;93;21630;-52
2022/03/01 02:22:55;;;;;;;6.80;6.20;;;;;;;0.30;56.71;95653.50;1520964;92;21091;-51
2022/03/01 02:25:22;;;;;;;7.12;6.40;;;;;;;0.18;56.87;95655.01;1524153;92;21164;-51
2022/03/01 02:27:50;;;;;;;9.95;7.40;;;;;;;0.07;57.16;95654.81;1553597;91;21295;-51
2022/03/01 02:30:16;;;;;;;17.35;11.57;;;;;;;-0.02;57.50;95660.23;1531893;91;21058;-51
2022/03/01 02:32:43;;;;;;;12.33;8.43;;;;;;;-0.01;57.63;95661.80;1526769;92;21493;-51
2022/03/01 02:35:16;;;;;;;6.80;6.20;;;;;;;-0.06;57.87;95658.63;1521942;93;21064;-52
2022/03/01 02:37:40;;;;;;;7.33;6.08;;;;;;;-0.06;57.80;95662.09;1523976;91;21052;-53
2022/03/01 02:40:09;;;;;;;6.83;6.20;;;;;;;-0.05;57.66;95665.59;1522960;92;21142;-50
2022/03/01 02:42:37;;;;;;;16.12;8.63;;;;;;;-0.03;57.64;95653.84;1528596;92;21095;-53
2022/03/01 02:45:07;;;;;;;10.90;8.15;;;;;;;0.01;57.66;95657.61;1528544;93;21716;-52
2022/03/01 02:47:33;;;;;;;16.00;9.05;;;;;;;0.07;57.46;95654.81;1527571;92;21015;-51
2022/03/01 02:50:00;;;;;;;9.10;7.03;;;;;;;0.07;57.39;95649.98;1504701;94;21538;-52
2022/03/01 02:52:29;;;;;;;7.20;6.50;;;;;;;-0.02;57.33;95644.02;1524481;91;21015;-52
2022/03/01 02:54:56;;;;;;;6.78;6.08;;;;;;;-0.11;57.52;95649.43;1523856;92;21020;-51
2022/03/01 02:57:24;;;;;;;8.03;6.70;;;;;;;-0.11;57.38;95651.58;1524847;93;21836;-57
2022/03/01 02:59:52;;;;;;;11.93;7.83;;;;;;;-0.19;57.44;95646.39;1519819;93;21031;-53
2022/03/01 03:02:19;;;;;;;9.63;7.03;;;;;;;-0.26;57.74;95644.91;1525627;92;21106;-56
2022/03/01 03:04:46;;;;;;;8.93;7.20;;;;;;;-0.25;57.68;95643.19;1532825;91;21028;-54
2022/03/01 03:07:12;;;;;;;11.38;7.67;;;;;;;-0.27;57.62;95643.31;1531461;91;21081;-53
2022/03/01 03:09:39;;;;;;;11.93;8.70;;;;;;;-0.33;57.46;95642.84;1532764;91;21992;-51
2022/03/01 03:12:08;;;;;;;11.12;7.62;;;;;;;-0.45;57.74;95635.45;1528968;91;20975;-53
2022/03/01 03:14:36;;;;;;;9.88;6.60;;;;;;;-0.43;57.90;95635.88;1522494;93;21058;-52
2022/03/01 03:17:04;;;;;;;8.13;7.33;;;;;;;-0.37;57.62;95632.50;1542754;90;21068;-50
2022/03/01 03:19:32;;;;;;;9.48;6.90;;;;;;;-0.45;57.67;95630.05;1510239;94;21091;-51
2022/03/01 03:21:59;;;;;;;9.60;7.03;;;;;;;-0.54;57.66;95637.02;1484136;95;22066;-53
2022/03/01 03:24:26;;;;;;;42.80;21.68;;;;;;;-0.58;57.62;95636.13;1477091;95;21159;-51
2022/03/01 03:26:54;;;;;;;29.60;18.05;;;;;;;-0.66;58.52;95627.68;1476880;95;21157;-51
2022/03/01 03:29:21;;;;;;;30.70;18.95;;;;;;;-0.88;58.97;95630.27;1490172;94;21262;-52
2022/03/01 03:31:54;;;;;;;31.27;17.82;;;;;;;-1.02;59.58;95617.80;1499442;94;21174;-51
2022/03/01 03:34:18;;;;;;;299.42;120.97;;;;;;;-1.11;59.88;95615.30;1492297;93;21207;-51
2022/03/01 03:36:46;;;;;;;34.90;20.82;;;;;;;-1.18;60.34;95615.73;1493891;93;21253;-51
2022/03/01 03:39:13;;;;;;;37.85;20.70;;;;;;;-1.13;60.51;95622.20;1491982;93;21180;-52
2022/03/01 03:41:40;;;;;;;60.98;29.37;;;;;;;-1.15;60.87;95615.02;1501034;93;21172;-52
2022/03/01 03:44:07;;;;;;;51.70;26.37;;;;;;;-1.28;61.17;95618.41;1496389;96;21147;-52
2022/03/01 03:46:34;;;;;;;59.93;30.20;;;;;;;-1.28;61.57;95620.30;1510224;92;22047;-50
2022/03/01 03:49:01;;;;;;;65.60;32.88;;;;;;;-1.29;61.61;95618.16;1494725;93;21063;-53
2022/03/01 03:51:32;;;;;;;52.75;26.90;;;;;;;-1.31;61.51;95615.61;1492107;94;21117;-51
2022/03/01 03:53:59;;;;;;;67.05;32.05;;;;;;;-1.26;61.79;95613.44;1488257;94;21109;-52
2022/03/01 03:56:26;;;;;;;61.30;30.15;;;;;;;-1.13;61.85;95616.22;1497390;94;21286;-51
2022/03/01 03:58:55;;;;;;;58.70;30.82;;;;;;;-0.98;61.76;95619.45;1496541;94;21155;-51
2022/03/01 04:01:21;;;;;;;59.33;30.95;;;;;;;-0.81;61.29;95604.78;1489190;94;21612;-51
2022/03/01 04:03:48;;;;;;;48.05;25.35;;;;;;;-0.81;61.02;95596.69;1494232;93;21212;-52
2022/03/01 04:06:14;;;;;;;42.08;23.75;;;;;;;-0.95;61.17;95595.79;1492449;94;21121;-52
2022/03/01 04:08:42;;;;;;;34.95;17.92;;;;;;;-1.03;61.56;95579.79;1493182;94;21086;-57
2022/03/01 04:11:08;;;;;;;36.48;20.43;;;;;;;-1.09;61.31;95575.26;1494963;94;21199;-56
2022/03/01 04:13:35;;;;;;;47.80;25.92;;;;;;;-1.06;61.42;95572.41;1474167;95;21106;-52
2022/03/01 04:16:02;;;;;;;58.25;32.83;;;;;;;-1.09;61.27;95569.06;1523588;93;21095;-54
2022/03/01 04:18:29;;;;;;;73.92;39.50;;;;;;;-1.06;61.69;95573.75;1501337;94;21176;-52
2022/03/01 04:20:56;;;;;;;77.78;40.70;;;;;;;-0.94;61.72;95575.75;1529927;93;21040;-53
2022/03/01 04:23:23;;;;;;;49.00;26.52;;;;;;;-0.86;61.38;95574.78;1524567;93;21187;-51
2022/03/01 04:25:50;;;;;;;53.65;27.45;;;;;;;-0.86;61.14;95578.03;1523048;93;21132;-53
2022/03/01 04:28:17;;;;;;;46.20;24.27;;;;;;;-0.94;61.20;95573.63;1524949;93;21009;-53
2022/03/01 04:30:45;;;;;;;48.85;26.65;;;;;;;-1.04;61.58;95574.17;1523632;92;21503;-56
2022/03/01 04:33:11;;;;;;;42.13;23.57;;;;;;;-0.99;61.80;95576.62;1522431;93;21081;-53
2022/03/01 04:35:38;;;;;;;39.75;22.55;;;;;;;-0.96;61.56;95569.16;1522290;92;22383;-54
2022/03/01 04:38:05;;;;;;;65.95;38.90;;;;;;;-1.04;61.52;95568.22;1527997;93;21128;-54
2022/03/01 04:40:31;;;;;;;71.70;39.35;;;;;;;-1.11;61.45;95568.64;1523589;92;21129;-52
2022/03/01 04:42:58;;;;;;;64.00;33.40;;;;;;;-1.18;61.68;95583.34;1522685;93;21125;-53
2022/03/01 04:45:26;;;;;;;70.00;32.23;;;;;;;-1.16;62.00;95583.77;1522346;92;21038;-51
2022/03/01 04:47:53;;;;;;;139.47;54.63;;;;;;;-1.14;61.93;95589.59;1525930;92;22455;-52
2022/03/01 04:50:20;;;;;;;117.65;49.73;;;;;;;-1.10;61.30;95594.49;1555533;91;21101;-53
2022/03/01 04:52:47;;;;;;;75.83;38.10;;;;;;;-1.16;61.57;95589.93;1530133;93;21049;-56
2022/03/01 04:55:14;;;;;;;59.10;31.73;;;;;;;-1.22;62.03;95599.45;1525267;92;21023;-52
2022/03/01 04:57:43;;;;;;;49.95;30.80;;;;;;;-1.22;62.18;95601.34;1524867;92;21109;-54
2022/03/01 05:00:11;;;;;;;44.45;24.82;;;;;;;-1.20;62.58;95601.77;1519941;93;21137;-54
2022/03/01 05:02:44;;;;;;;35.45;24.25;;;;;;;-1.05;62.56;95607.16;1521403;93;21673;-56
2022/03/01 05:05:12;;;;;;;48.55;31.57;;;;;;;-0.91;62.47;95607.47;1528093;92;21001;-56
2022/03/01 05:07:46;;;;;;;49.70;34.53;;;;;;;-0.81;62.32;95603.44;1518699;93;21126;-54
2022/03/01 05:10:18;;;;;;;68.00;45.33;;;;;;;-0.68;62.64;95604.84;1519970;93;21018;-54
2022/03/01 05:12:49;;;;;;;;;;;;;;;-0.45;62.14;95605.14;1519760;93;21235;-52
2022/03/01 05:15:16;;;;;;;141.10;65.97;;;;;;;-0.32;61.92;95603.86;1515638;93;21438;-59
2022/03/01 05:17:43;;;;;;;85.60;47.40;;;;;;;-0.22;61.57;95599.80;1522829;93;21679;-53
2022/03/01 05:20:12;;;;;;;83.27;45.43;;;;;;;-0.23;61.18;95597.65;1519201;93;21230;-53
2022/03/01 05:22:39;;;;;;;109.42;56.33;;;;;;;-0.24;61.01;95596.09;1519452;93;21098;-54
2022/03/01 05:25:09;;;;;;;87.78;45.58;;;;;;;-0.29;61.44;95584.77;1516166;93;21227;-54
2022/03/01 05:27:37;;;;;;;72.62;39.03;;;;;;;-0.23;61.22;95590.13;1501871;94;21028;-54
2022/03/01 05:30:07;;;;;;;74.32;40.28;;;;;;;-0.17;60.78;95596.80;1508532;92;21104;-52
2022/03/01 05:32:35;;;;;;;73.78;39.03;;;;;;;-0.20;60.87;95601.56;1521667;93;21022;-53
2022/03/01 05:35:02;;;;;;;75.08;39.90;;;;;;;-0.11;61.12;95615.62;1526821;93;21069;-53
2022/03/01 05:37:29;;;;;;;84.90;46.68;;;;;;;0.06;60.80;95615.39;1519813;93;21525;-55
2022/03/01 05:39:56;;;;;;;45.60;23.85;;;;;;;0.20;59.78;95617.58;1524555;92;21071;-53
2022/03/01 05:42:23;;;;;;;21.90;13.88;;;;;;;0.21;58.87;95613.15;1525069;92;21061;-55
2022/03/01 05:44:51;;;;;;;17.82;10.70;;;;;;;0.20;57.56;95614.29;1525568;92;21111;-56
2022/03/01 05:47:18;;;;;;;14.53;10.88;;;;;;;0.15;57.57;95620.56;1521666;92;21096;-54
2022/03/01 05:49:44;;;;;;;11.20;8.58;;;;;;;0.10;57.20;95610.84;1521121;93;21228;-54
2022/03/01 05:52:11;;;;;;;12.55;8.00;;;;;;;0.15;57.52;95620.56;1519674;93;21130;-59
2022/03/01 05:54:38;;;;;;;16.65;10.25;;;;;;;0.24;57.25;95615.72;1529902;92;21213;-55
2022/03/01 05:57:06;;;;;;;25.52;14.45;;;;;;;0.33;57.06;95623.80;1527847;92;21017;-56
2022/03/01 05:59:33;;;;;;;14.85;10.88;;;;;;;0.42;56.91;95618.16;1523782;93;21050;-56
2022/03/01 06:02:00;;;;;;;11.93;8.33;;;;;;;0.59;55.89;95608.95;1521046;93;21102;-54
2022/03/01 06:04:26;;;;;;;10.35;6.80;;;;;;;0.67;54.17;95605.23;1542845;91;21842;-57
2022/03/01 06:06:53;;;;;;;17.98;12.68;;;;;;;0.59;54.04;95615.72;1525996;93;21597;-57
2022/03/01 06:09:20;;;;;;;22.13;12.50;;;;;;;0.58;54.40;95610.69;1526893;93;21037;-62
2022/03/01 06:11:47;;;;;;;17.87;9.95;;;;;;;0.72;54.19;95611.69;1527216;92;20997;-54
2022/03/01 06:14:14;;;;;;;12.50;8.10;;;;;;;0.86;53.93;95611.91;1526692;93;21134;-60
2022/03/01 06:16:41;;;;;;;6.78;6.17;;;;;;;0.95;53.43;95604.29;1515226;93;21052;-57
2022/03/01 06:19:08;;;;;;;7.35;6.40;;;;;;;1.00;53.32;95609.39;1524209;92;21276;-53
2022/03/01 06:21:34;;;;;;;9.33;7.35;;;;;;;1.08;52.94;95605.66;1521685;93;21059;-57
2022/03/01 06:24:03;;;;;;;63.98;37.70;;;;;;;1.19;52.15;95605.23;1553964;91;21076;-51
2022/03/01 06:26:30;;;;;;;77.03;40.65;;;;;;;1.19;53.20;95606.59;1528530;92;21191;-58
2022/03/01 06:28:57;;;;;;;87.85;45.90;;;;;;;1.04;54.05;95607.53;1523730;92;21118;-58
2022/03/01 06:31:23;;;;;;;70.90;40.50;;;;;;;0.86;54.63;95603.78;1502642;93;21490;-54
2022/03/01 06:33:51;;;;;;;56.95;32.98;;;;;;;0.74;55.32;95601.27;1516884;93;21829;-60
2022/03/01 06:36:17;;;;;;;56.05;32.23;;;;;;;0.72;55.49;95610.34;1520575;93;21024;-55
2022/03/01 06:38:44;;;;;;;41.85;25.57;;;;;;;0.64;55.54;95616.00;1511482;94;21912;-54
2022/03/01 06:41:11;;;;;;;58.25;32.67;;;;;;;0.59;55.33;95610.31;1528549;91;21030;-56
2022/03/01 06:43:38;;;;;;;110.28;75.87;;;;;;;0.47;55.29;95611.88;1522728;92;21024;-63
2022/03/01 06:46:04;;;;;;;61.35;37.67;;;;;;;0.51;55.73;95606.50;1523582;93;21140;-57
2022/03/01 06:48:32;;;;;;;51.53;31.15;;;;;;;0.71;55.33;95610.13;1544972;90;21215;-58
2022/03/01 06:50:59;;;;;;;53.42;25.85;;;;;;;0.88;55.00;95615.59;1526513;92;21125;-62
2022/03/01 06:53:26;;;;;;;32.13;18.80;;;;;;;0.92;54.87;95618.57;1539225;91;21080;-58
2022/03/01 06:55:53;;;;;;;31.20;18.50;;;;;;;1.06;54.08;95618.78;1534321;92;21119;-58
2022/03/01 06:58:19;;;;;;;47.00;26.37;;;;;;;1.18;53.68;95615.84;1534736;91;21088;-57
2022/03/01 07:00:46;;;;;;;39.05;23.60;;;;;;;1.31;53.74;95621.25;1537225;90;21183;-57
2022/03/01 07:03:13;;;;;;;56.37;31.10;;;;;;;1.47;53.32;95621.86;1519042;92;21181;-61
2022/03/01 07:05:40;;;;;;;81.75;43.98;;;;;;;1.57;52.93;95623.94;1542615;90;21058;-59
2022/03/01 07:08:08;;;;;;;67.40;37.17;;;;;;;1.73;52.61;95628.01;1534590;90;21182;-58
2022/03/01 07:10:38;;;;;;;47.00;24.47;;;;;;;1.90;52.44;95619.86;1536668;91;21086;-58
2022/03/01 07:13:05;;;;;;;31.80;17.50;;;;;;;1.87;50.29;95615.18;1536585;91;21073;-62
2022/03/01 07:15:37;;;;;;;21.93;12.18;;;;;;;1.74;49.94;95615.25;1537530;90;21988;-61
2022/03/01 07:18:04;;;;;;;16.62;11.83;;;;;;;1.81;49.29;95614.72;1540699;90;21038;-55
2022/03/01 07:20:31;;;;;;;16.25;10.15;;;;;;;2.00;48.40;95613.78;1528572;91;21660;-58
2022/03/01 07:22:58;;;;;;;34.75;16.02;;;;;;;2.00;48.05;95609.13;1511400;91;21070;-55
2022/03/01 07:25:25;;;;;;;27.17;15.05;;;;;;;1.94;48.29;95604.43;1526868;91;21638;-57
2022/03/01 07:27:54;;;;;;;30.12;16.05;;;;;;;1.95;48.51;95607.34;1535322;91;22175;-60
2022/03/01 07:30:24;;;;;;;26.73;14.55;;;;;;;1.92;48.63;95612.16;1534228;91;21128;-58
2022/03/01 07:32:58;;;;;;;49.67;23.02;;;;;;;1.91;48.82;95609.22;1531722;91;21677;-60
2022/03/01 07:35:26;;;;;;;30.10;17.87;;;;;;;2.00;49.00;95608.36;1524700;92;21409;-58
2022/03/01 07:37:58;;;;;;;25.52;14.55;;;;;;;2.11;48.70;95595.70;1536799;92;21099;-57
2022/03/01 07:40:24;;;;;;;19.32;12.20;;;;;;;2.34;48.68;95588.16;1541563;90;21175;-58
2022/03/01 07:42:51;;;;;;;29.85;14.93;;;;;;;2.47;48.34;95580.71;1525160;90;21895;-62
2022/03/01 07:45:19;;;;;;;19.37;9.55;;;;;;;2.52;48.44;95580.95;1531592;91;21076;-56
2022/03/01 07:47:46;;;;;;;15.63;9.30;;;;;;;2.56;47.43;95576.32;1500091;92;21155;-59
2022/03/01 07:50:13;;;;;;;16.85;11.22;;;;;;;2.55;47.75;95564.70;1531811;91;21018;-58
2022/03/01 07:52:51;;;;;;;16.15;12.50;;;;;;;2.60;47.91;95573.84;1488798;93;21298;-63
2022/03/01 07:55:30;;;;;;;21.17;12.23;;;;;;;2.62;47.35;95568.81;1498184;91;21217;-56
2022/03/01 07:57:58;;;;;;;13.65;9.08;;;;;;;2.72;47.76;95576.84;1494868;93;21170;-57
2022/03/01 08:00:27;;;;;;;14.65;8.68;;;;;;;2.71;46.41;95584.20;1521215;92;21141;-63
2022/03/01 08:02:59;;;;;;;15.43;10.10;;;;;;;2.66;46.05;95575.64;1499660;93;21094;-58
2022/03/01 08:05:26;;;;;;;21.52;11.25;;;;;;;2.66;46.30;95580.48;1536890;90;21552;-57
2022/03/01 08:07:55;;;;;;;8.03;6.30;;;;;;;2.80;46.57;95568.37;1536624;90;21054;-57
2022/03/01 08:10:22;;;;;;;6.85;5.50;;;;;;;2.92;43.31;95571.36;1523715;92;21039;-56
2022/03/01 08:12:50;;;;;;;11.65;6.05;;;;;;;2.92;42.04;95576.80;1520572;91;21706;-61
2022/03/01 08:15:16;;;;;;;9.78;6.33;;;;;;;2.87;43.46;95577.15;1529303;90;21465;-57
2022/03/01 08:17:58;;;;;;;7.85;6.10;;;;;;;2.90;43.84;95573.08;1529627;91;21125;-58
2022/03/01 08:20:27;;;;;;;7.85;6.10;;;;;;;2.99;44.24;95571.39;1533456;90;21120;-58
2022/03/01 08:22:58;;;;;;;9.28;6.55;;;;;;;2.98;43.93;95568.47;1531093;91;21194;-59
2022/03/01 08:25:28;;;;;;;8.98;6.92;;;;;;;2.92;44.42;95571.36;1515473;90;21305;-57
2022/03/01 08:27:56;;;;;;;10.80;6.80;;;;;;;2.95;44.23;95576.03;1515084;92;21275;-57
2022/03/01 08:30:24;;;;;;;6.97;6.10;;;;;;;3.00;43.34;95566.16;1528062;91;21466;-56
2022/03/01 08:32:52;;;;;;;11.22;6.72;;;;;;;3.02;43.51;95561.15;1538664;90;21122;-58
2022/03/01 08:35:20;;;;;;;6.70;6.00;;;;;;;3.00;43.49;95559.36;1530420;91;21535;-59
2022/03/01 08:37:47;;;;;;;7.33;5.50;;;;;;;3.09;43.04;95557.10;1511826;92;22355;-53
2022/03/01 08:40:14;;;;;;;6.72;6.03;;;;;;;3.22;42.80;95560.47;1507154;91;21285;-61
2022/03/01 08:42:41;;;;;;;5.70;5.10;;;;;;;3.31;42.55;95550.05;1532936;90;21107;-57
2022/03/01 08:45:09;;;;;;;9.88;5.70;;;;;;;3.41;41.62;95546.58;1538104;90;21221;-59
2022/03/01 08:47:37;;;;;;;8.40;5.95;;;;;;;3.46;41.42;95540.01;1525665;92;21082;-56
2022/03/01 08:50:05;;;;;;;10.03;7.12;;;;;;;3.51;40.94;95527.59;1527656;91;21121;-57
2022/03/01 08:52:33;;;;;;;10.40;6.60;;;;;;;3.64;40.91;95525.30;1531354;91;21096;-56
2022/03/01 08:55:01;;;;;;;6.30;5.58;;;;;;;3.65;40.88;95516.77;1535267;90;21157;-56
2022/03/01 08:57:29;;;;;;;10.80;6.62;;;;;;;3.77;40.26;95510.98;1538872;90;21118;-57
2022/03/01 08:59:58;;;;;;;13.13;6.60;;;;;;;3.90;39.75;95505.95;1518567;91;21516;-57
2022/03/01 09:02:26;;;;;;;12.68;8.20;;;;;;;3.91;39.43;95498.73;1532980;89;21050;-56
2022/03/01 09:04:53;;;;;;;12.37;6.92;;;;;;;3.88;39.59;95500.88;1519349;92;21196;-58
2022/03/01 09:07:20;;;;;;;14.73;5.72;;;;;;;3.90;39.62;95497.78;1531104;90;21244;-59
2022/03/01 09:09:47;;;;;;;15.43;7.40;;;;;;;3.97;39.51;95497.78;1534711;91;21069;-58
2022/03/01 09:12:14;;;;;;;12.63;7.12;;;;;;;4.10;39.84;95516.11;1541326;91;21244;-56
2022/03/01 09:14:40;;;;;;;5.00;4.60;;;;;;;4.38;39.19;95507.95;1544721;90;21040;-56
2022/03/01 09:17:07;;;;;;;6.00;4.55;;;;;;;4.52;39.75;95503.87;1544419;90;21137;-63
2022/03/01 09:19:35;;;;;;;6.28;4.92;;;;;;;4.61;39.54;95500.15;1549699;91;21171;-55
2022/03/01 09:22:02;;;;;;;6.97;4.53;;;;;;;4.74;39.76;95504.04;1537593;91;21072;-58
2022/03/01 09:24:30;;;;;;;8.68;4.97;;;;;;;4.93;39.31;95511.80;1531426;91;21045;-59
2022/03/01 09:27:01;;;;;;;10.68;6.25;;;;;;;4.95;37.91;95508.09;1540575;90;21112;-58
2022/03/01 09:29:27;;;;;;;5.25;4.85;;;;;;;5.06;37.99;95516.25;1540136;90;21881;-58
2022/03/01 09:31:55;;;;;;;5.25;4.75;;;;;;;5.26;38.38;95509.38;1541805;90;21209;-54
2022/03/01 09:34:22;;;;;;;7.62;4.70;;;;;;;5.45;38.27;95511.64;1543213;90;21021;-58
2022/03/01 09:36:50;;;;;;;6.17;5.58;;;;;;;5.50;37.81;95503.07;1535254;90;21219;-60
2022/03/01 09:39:17;;;;;;;7.17;4.78;;;;;;;5.51;37.94;95499.73;1532401;91;21074;-59
2022/03/01 09:41:44;;;;;;;5.78;4.75;;;;;;;5.61;37.78;95489.37;1529610;91;21033;-60
2022/03/01 09:44:10;;;;;;;7.55;4.33;;;;;;;5.79;36.52;95488.73;1535055;90;21156;-57
2022/03/01 09:46:38;;;;;;;6.22;4.40;;;;;;;5.83;36.53;95490.84;1537273;91;21180;-58
2022/03/01 09:49:06;;;;;;;6.00;4.05;;;;;;;5.88;36.62;95480.87;1537954;91;21668;-56
2022/03/01 09:51:36;;;;;;;9.43;4.55;;;;;;;5.79;36.13;95493.59;1545789;90;21129;-59
2022/03/01 09:54:03;;;;;;;10.35;5.35;;;;;;;5.81;35.95;95493.97;1534184;90;21394;-60
2022/03/01 09:56:30;;;;;;;7.65;4.58;;;;;;;5.86;35.83;95493.57;1532679;92;21103;-56
2022/03/01 09:58:58;;;;;;;9.88;4.90;;;;;;;5.79;35.29;95492.83;1536987;90;21103;-58
2022/03/01 10:01:25;;;;;;;8.38;4.95;;;;;;;5.67;36.31;95494.03;1542126;90;21048;-59
2022/03/01 10:03:53;;;;;;;6.62;3.70;;;;;;;5.56;36.17;95483.73;1527097;91;21448;-58
2022/03/01 10:06:27;;;;;;;11.48;6.30;;;;;;;5.53;36.57;95479.65;1527054;92;21603;-56
2022/03/01 10:08:54;;;;;;;21.23;9.75;;;;;;;5.34;36.54;95484.22;1538519;90;21243;-58
2022/03/01 10:11:23;;;;;;;9.63;5.85;;;;;;;5.23;36.42;95486.79;1532219;91;21656;-59
2022/03/01 10:13:57;;;;;;;10.93;6.53;;;;;;;5.16;36.40;95484.86;1526631;92;21032;-61
2022/03/01 10:16:25;;;;;;;9.68;4.70;;;;;;;5.13;36.41;95482.92;1524305;91;21122;-61
2022/03/01 10:19:00;;;;;;;7.50;4.03;;;;;;;5.06;35.41;95482.16;1507906;91;21037;-61
2022/03/01 10:21:29;;;;;;;5.05;4.25;;;;;;;4.94;36.01;95483.97;1528622;91;21096;-59
2022/03/01 10:23:58;;;;;;;5.28;4.87;;;;;;;4.67;36.17;95475.45;1523852;92;21361;-56
2022/03/01 10:26:28;;;;;;;10.85;4.70;;;;;;;4.52;36.61;95470.38;1535665;89;21044;-62
2022/03/01 10:28:57;;;;;;;5.00;4.53;;;;;;;4.47;34.80;95472.94;1531372;91;21078;-66
2022/03/01 10:31:28;;;;;;;7.83;6.65;;;;;;;4.42;35.23;95471.19;1528787;91;21119;-62
2022/03/01 10:34:06;;;;;;;5.65;4.58;;;;;;;4.59;35.76;95472.52;1518077;92;22288;-58
2022/03/01 10:36:44;;;;;;;4.37;4.00;;;;;;;5.12;36.62;95471.06;1537913;90;21063;-59
2022/03/01 10:39:13;;;;;;;4.87;4.37;;;;;;;5.83;34.83;95455.36;1521870;92;21064;-58
2022/03/01 10:41:42;;;;;;;4.75;4.28;;;;;;;6.56;34.12;95451.30;1519790;92;21011;-57
2022/03/01 10:44:25;;;;;;;7.37;4.30;;;;;;;7.27;34.11;95449.58;1522689;91;21506;-56
2022/03/01 10:46:56;;;;;;;4.55;4.10;;;;;;;7.87;34.07;95440.00;1537179;89;21204;-56
2022/03/01 10:49:29;;;;;;;12.10;3.37;;;;;;;8.48;32.27;95446.95;1528668;90;21539;-60
2022/03/01 10:52:03;;;;;;;5.03;3.37;;;;;;;8.72;30.69;95434.00;1497929;93;21617;-63
2022/03/01 10:54:42;;;;;;;9.43;3.35;;;;;;;8.87;30.72;95440.20;1497038;93;21124;-55
2022/03/01 10:57:11;;;;;;;11.50;4.95;;;;;;;8.83;29.75;95432.61;1496815;93;21738;-61
2022/03/01 10:59:40;;;;;;;6.37;4.35;;;;;;;8.45;28.77;95438.77;1500840;92;21174;-60
2022/03/01 11:02:07;;;;;;;6.12;3.92;;;;;;;8.12;31.14;95437.70;1500043;93;21028;-59
2022/03/01 11:04:34;;;;;;;4.17;3.55;;;;;;;7.77;29.34;95449.73;1530649;92;22075;-59
2022/03/01 11:07:04;;;;;;;3.85;3.55;;;;;;;7.19;29.58;95439.12;1543015;90;21108;-55
2022/03/01 11:09:33;;;;;;;4.35;3.72;;;;;;;6.65;30.76;95429.72;1529312;90;21132;-56
2022/03/01 11:12:01;;;;;;;4.05;3.20;;;;;;;6.42;31.32;95433.65;1545970;89;21196;-58
2022/03/01 11:14:51;;;;;;;7.33;3.85;;;;;;;6.18;31.65;95434.64;1561045;90;21134;-60
2022/03/01 11:17:33;;;;;;;5.30;4.15;;;;;;;5.84;32.20;95430.97;1486718;94;21153;-57
2022/03/01 11:20:19;;;;;;;5.62;4.25;;;;;;;5.47;33.04;95428.83;1520644;92;21156;-57
2022/03/01 11:22:54;;;;;;;5.60;4.15;;;;;;;5.21;34.13;95425.84;1523805;92;21187;-56
2022/03/01 11:25:31;;;;;;;5.05;4.00;;;;;;;4.93;34.84;95426.52;1513268;91;21169;-56
2022/03/01 11:28:05;;;;;;;6.97;4.58;;;;;;;4.71;34.75;95423.07;1506833;93;21020;-56
2022/03/01 11:30:35;;;;;;;9.45;5.00;;;;;;;4.61;36.45;95433.99;1495504;94;21124;-56
2022/03/01 11:33:03;;;;;;;17.98;6.72;;;;;;;4.36;37.33;95426.42;1517265;93;21143;-58
2022/03/01 11:35:33;;;;;;;6.95;5.15;;;;;;;4.24;36.66;95426.84;1521687;92;21210;-57